Time;durP1;ratioP1;P1;durP2;ratioP2;P2;SDS_P1;SDS_P2;PMS_P1;PMS_P2;Temp;Humidity;BMP_temperature;BMP_pressure;BME280_temperature;BME280_humidity;BME280_pressure;Samples;Min_cycle;Max_cycle;Signal;HPM_P1;HPM_P2
2022/04/09 00:02:18;;;;;;;1.10;0.77;;;;;;;1.99;100.00;97239.97;5008651;28;20050;-85
2022/04/09 00:04:43;;;;;;;2.40;0.88;;;;;;;2.00;100.00;97259.91;5007758;28;20344;-85
2022/04/09 00:07:09;;;;;;;2.40;1.50;;;;;;;2.06;100.00;97270.22;4983290;28;20097;-85
2022/04/09 00:09:35;;;;;;;4.22;1.58;;;;;;;2.06;100.00;97278.00;4985428;28;20022;-85
2022/04/09 00:12:00;;;;;;;1.90;1.33;;;;;;;2.06;100.00;97293.56;4984566;28;20050;-85
2022/04/09 00:14:26;;;;;;;1.30;1.00;;;;;;;2.10;100.00;97305.66;4999275;28;20033;-85
2022/04/09 00:16:51;;;;;;;2.70;1.58;;;;;;;2.06;100.00;97309.16;4984831;28;20141;-85
2022/04/09 00:19:17;;;;;;;1.70;1.25;;;;;;;2.06;100.00;97315.19;4983234;28;20105;-85
2022/04/09 00:21:42;;;;;;;4.75;2.08;;;;;;;2.14;100.00;97320.31;4984361;28;20032;-85
2022/04/09 00:24:08;;;;;;;2.88;1.30;;;;;;;2.18;100.00;97334.97;4984713;28;20034;-85
2022/04/09 00:26:34;;;;;;;2.15;1.30;;;;;;;2.17;100.00;97341.06;4983605;28;20022;-85
2022/04/09 00:28:59;;;;;;;1.52;1.00;;;;;;;2.17;100.00;97343.66;4983213;28;20025;-85
2022/04/09 00:31:24;;;;;;;5.93;1.85;;;;;;;2.15;100.00;97346.25;4976961;28;20014;-85
2022/04/09 00:33:50;;;;;;;3.78;2.33;;;;;;;2.20;100.00;97348.81;4983407;28;20035;-85
2022/04/09 00:36:15;;;;;;;3.55;2.42;;;;;;;2.16;100.00;97360.09;4983436;28;20026;-85
2022/04/09 00:38:41;;;;;;;3.05;1.70;;;;;;;2.18;100.00;97360.94;4983204;28;20057;-85
2022/04/09 00:41:10;;;;;;;3.53;1.90;;;;;;;2.16;100.00;97373.91;4984401;28;20046;-85
2022/04/09 00:43:41;;;;;;;3.33;1.48;;;;;;;2.21;100.00;97376.47;4983457;28;20313;-85
2022/04/09 00:46:08;;;;;;;6.93;2.42;;;;;;;2.19;100.00;97375.66;4983012;28;20022;-85
2022/04/09 00:48:36;;;;;;;3.53;2.10;;;;;;;2.19;100.00;97383.44;4984041;28;20222;-85
2022/04/09 00:51:02;;;;;;;3.70;2.45;;;;;;;2.21;100.00;97392.06;4984380;28;20019;-85
2022/04/09 00:53:34;;;;;;;3.25;1.98;;;;;;;2.22;100.00;97393.81;4984348;28;20019;-85
2022/04/09 00:56:16;;;;;;;;;;;;;;;2.26;100.00;97400.69;4981638;28;20057;-85
2022/04/09 00:58:55;;;;;;;4.10;2.80;;;;;;;2.24;100.00;97407.63;4979850;28;19917;-85
2022/04/09 01:01:27;;;;;;;6.28;3.30;;;;;;;2.22;100.00;97414.56;4983160;28;20199;-85
2022/04/09 01:03:54;;;;;;;5.78;3.30;;;;;;;2.17;100.00;97421.50;4982890;28;20410;-85
2022/04/09 01:06:20;;;;;;;6.28;3.22;;;;;;;2.21;100.00;97428.41;4983119;28;20034;-85
2022/04/09 01:08:46;;;;;;;6.25;3.67;;;;;;;2.21;100.00;97439.66;4983607;28;20314;-85
2022/04/09 01:11:13;;;;;;;12.73;4.82;;;;;;;2.21;100.00;97449.16;4984026;28;20025;-85
2022/04/09 01:13:39;;;;;;;15.60;5.43;;;;;;;2.26;100.00;97447.41;4979039;28;20302;-85
2022/04/09 01:16:06;;;;;;;8.00;4.40;;;;;;;2.28;100.00;97452.59;4982854;28;20291;-84
2022/04/09 01:18:33;;;;;;;12.73;5.28;;;;;;;2.29;100.00;97462.97;4982590;28;20019;-85
2022/04/09 01:21:00;;;;;;;10.73;5.20;;;;;;;2.32;100.00;97475.06;4998634;28;20018;-85
2022/04/09 01:23:26;;;;;;;9.75;5.60;;;;;;;2.29;100.00;97488.94;4982824;28;20082;-85
2022/04/09 01:25:52;;;;;;;11.75;6.00;;;;;;;2.32;100.00;97493.22;4985463;28;20329;-85
2022/04/09 01:28:17;;;;;;;10.40;6.32;;;;;;;2.36;100.00;97495.81;4987179;28;20026;-85
2022/04/09 01:30:44;;;;;;;16.00;6.95;;;;;;;2.36;100.00;97506.19;4986405;28;20044;-85
2022/04/09 01:33:21;;;;;;;20.63;6.85;;;;;;;2.36;100.00;97515.69;4984924;28;20058;-85
2022/04/09 01:35:48;;;;;;;12.20;6.38;;;;;;;2.35;100.00;97520.06;4986389;28;20023;-85
2022/04/09 01:38:14;;;;;;;15.48;7.53;;;;;;;2.46;100.00;97525.19;4987234;28;20093;-85
2022/04/09 01:40:40;;;;;;;13.65;7.43;;;;;;;2.44;100.00;97535.59;4986428;28;20213;-85
2022/04/09 01:43:06;;;;;;;11.27;6.18;;;;;;;2.43;100.00;97545.97;4986467;28;20057;-85
2022/04/09 01:45:32;;;;;;;16.33;7.32;;;;;;;2.41;100.00;97546.00;4985787;28;20233;-85
2022/04/09 01:47:58;;;;;;;14.88;7.68;;;;;;;2.37;100.00;97562.44;4987338;28;20038;-85
2022/04/09 01:50:26;;;;;;;15.35;7.93;;;;;;;2.40;100.00;97578.00;4982408;28;20329;-85
2022/04/09 01:52:52;;;;;;;17.00;8.52;;;;;;;2.37;100.00;97583.19;5002493;28;20054;-85
2022/04/09 01:55:18;;;;;;;12.90;7.40;;;;;;;2.34;100.00;97580.63;4986045;28;20023;-85
2022/04/09 01:57:43;;;;;;;20.67;8.68;;;;;;;2.37;100.00;97598.78;4985901;28;20045;-85
2022/04/09 02:00:12;;;;;;;17.20;7.78;;;;;;;2.44;100.00;97602.22;4984004;28;20190;-85
2022/04/09 02:02:37;;;;;;;13.85;7.07;;;;;;;2.51;100.00;97603.91;4982195;28;20094;-85
2022/04/09 02:05:03;;;;;;;18.05;8.05;;;;;;;2.48;100.00;97611.72;4985851;28;20026;-85
2022/04/09 02:07:28;;;;;;;24.00;12.00;;;;;;;2.52;100.00;97616.91;4975148;28;20329;-85
2022/04/09 02:09:54;;;;;;;17.92;8.80;;;;;;;2.51;100.00;97616.91;4985337;28;20035;-85
2022/04/09 02:12:20;;;;;;;18.85;7.85;;;;;;;2.62;100.00;97626.38;5009502;28;20028;-85
2022/04/09 02:14:45;;;;;;;14.90;8.43;;;;;;;2.61;100.00;97627.25;4986023;28;20101;-84
2022/04/09 02:17:12;;;;;;;13.48;7.13;;;;;;;2.48;100.00;97633.38;4984623;28;20345;-84
2022/04/09 02:19:38;;;;;;;19.92;7.45;;;;;;;2.43;100.00;97637.72;4983447;28;20030;-85
2022/04/09 02:22:04;;;;;;;16.58;7.25;;;;;;;2.43;100.00;97642.06;4985316;28;20089;-85
2022/04/09 02:24:30;;;;;;;13.70;7.20;;;;;;;2.38;100.00;97638.59;4985577;28;20027;-85
2022/04/09 02:26:55;;;;;;;16.77;7.93;;;;;;;2.35;100.00;97651.59;4982218;28;20208;-85
2022/04/09 02:29:21;;;;;;;14.95;8.18;;;;;;;2.36;100.00;97656.78;4985495;28;20314;-85
2022/04/09 02:31:47;;;;;;;19.95;9.40;;;;;;;2.31;100.00;97663.69;4985536;28;20026;-85
2022/04/09 02:34:12;;;;;;;13.93;7.78;;;;;;;2.24;100.00;97673.25;4978795;28;20160;-85
2022/04/09 02:36:38;;;;;;;16.75;8.68;;;;;;;2.22;100.00;97674.13;4981934;28;20381;-85
2022/04/09 02:39:05;;;;;;;16.80;7.25;;;;;;;2.18;100.00;97680.16;4986816;28;20050;-85
2022/04/09 02:41:31;;;;;;;13.30;7.53;;;;;;;2.15;100.00;97694.03;4986422;28;20109;-85
2022/04/09 02:43:57;;;;;;;25.17;9.77;;;;;;;2.12;100.00;97695.78;4986440;28;20267;-85
2022/04/09 02:46:23;;;;;;;21.88;8.18;;;;;;;2.16;100.00;97705.28;4985148;28;20097;-85
2022/04/09 02:48:49;;;;;;;15.82;7.80;;;;;;;2.14;100.00;97707.00;4985321;28;20058;-85
2022/04/09 02:51:14;;;;;;;15.98;9.20;;;;;;;2.18;100.00;97716.50;4986402;28;20029;-85
2022/04/09 02:53:39;;;;;;;17.38;8.40;;;;;;;2.19;100.00;97726.06;4986304;28;20314;-85
2022/04/09 02:56:05;;;;;;;19.45;9.57;;;;;;;2.26;100.00;97732.97;4985137;28;20330;-85
2022/04/09 02:58:31;;;;;;;20.65;10.52;;;;;;;2.35;100.00;97738.13;4984989;28;20026;-85
2022/04/09 03:00:56;;;;;;;23.25;9.52;;;;;;;2.31;100.00;97736.38;4984350;28;20110;-85
2022/04/09 03:03:22;;;;;;;21.52;8.90;;;;;;;2.30;100.00;97747.66;4986295;28;20093;-85
2022/04/09 03:05:47;;;;;;;23.75;10.10;;;;;;;2.32;100.00;97738.13;4985065;28;20101;-85
2022/04/09 03:08:13;;;;;;;23.58;10.18;;;;;;;2.27;100.00;97755.44;4984159;28;20022;-85
2022/04/09 03:10:38;;;;;;;24.63;9.93;;;;;;;2.34;100.00;97762.34;4984693;28;20314;-85
2022/04/09 03:13:04;;;;;;;18.52;9.48;;;;;;;2.28;100.00;97764.97;4984771;28;20027;-85
2022/04/09 03:15:30;;;;;;;17.90;8.93;;;;;;;2.33;100.00;97770.13;4984983;28;20050;-85
2022/04/09 03:17:55;;;;;;;16.30;8.55;;;;;;;2.33;100.00;97771.00;4985682;28;20050;-85
2022/04/09 03:20:21;;;;;;;17.70;9.45;;;;;;;2.30;100.00;97776.22;4984332;28;20026;-85
2022/04/09 03:22:48;;;;;;;21.67;10.48;;;;;;;2.33;100.00;97781.41;4980736;28;20050;-85
2022/04/09 03:25:14;;;;;;;15.45;8.35;;;;;;;2.33;100.00;97786.59;4984748;28;20046;-85
2022/04/09 03:27:40;;;;;;;18.33;10.38;;;;;;;2.27;100.00;97788.34;4985148;28;20031;-85
2022/04/09 03:30:09;;;;;;;21.80;10.30;;;;;;;2.24;100.00;97796.97;4984494;28;20060;-85
2022/04/09 03:32:38;;;;;;;20.23;10.88;;;;;;;2.22;100.00;97807.34;4984463;28;20309;-85
2022/04/09 03:35:09;;;;;;;24.33;11.77;;;;;;;2.19;100.00;97812.56;4984490;28;20347;-85
2022/04/09 03:37:36;;;;;;;20.27;9.63;;;;;;;2.19;100.00;97824.69;4984219;28;20023;-85
2022/04/09 03:40:04;;;;;;;22.85;11.30;;;;;;;2.22;100.00;97822.94;4985461;28;20317;-85
2022/04/09 03:42:30;;;;;;;17.42;10.40;;;;;;;2.26;100.00;97826.41;4998038;28;20053;-85
2022/04/09 03:44:55;;;;;;;21.95;10.32;;;;;;;2.28;100.00;97830.72;4985302;28;20314;-85
2022/04/09 03:47:21;;;;;;;20.92;10.80;;;;;;;2.18;100.00;97833.31;4984098;28;20046;-85
2022/04/09 03:49:46;;;;;;;24.17;9.90;;;;;;;2.16;100.00;97840.25;4985297;28;20061;-85
2022/04/09 03:52:11;;;;;;;19.33;10.10;;;;;;;2.14;100.00;97841.97;4985281;28;20026;-85
2022/04/09 03:54:38;;;;;;;39.47;11.45;;;;;;;2.08;100.00;97847.16;4983920;28;20022;-85
2022/04/09 03:57:04;;;;;;;20.38;10.30;;;;;;;2.04;100.00;97842.84;4984263;28;20023;-85
2022/04/09 03:59:29;;;;;;;17.58;9.57;;;;;;;1.95;100.00;97850.59;4983507;28;20262;-85
2022/04/09 04:01:55;;;;;;;21.85;10.40;;;;;;;1.90;100.00;97857.53;4984963;28;20022;-85
2022/04/09 04:04:21;;;;;;;25.65;11.18;;;;;;;1.84;100.00;97849.72;4983523;28;20152;-85
2022/04/09 04:06:48;;;;;;;21.80;12.00;;;;;;;1.87;100.00;97857.50;4983908;28;20026;-85
2022/04/09 04:09:16;;;;;;;20.15;11.07;;;;;;;1.83;100.00;97871.31;4983456;28;20019;-85
2022/04/09 04:11:42;;;;;;;20.80;10.57;;;;;;;1.71;100.00;97871.31;4984818;28;20022;-85
2022/04/09 04:14:08;;;;;;;20.38;10.75;;;;;;;1.71;100.00;97876.50;4984820;28;20095;-85
2022/04/09 04:16:33;;;;;;;23.17;11.15;;;;;;;1.63;100.00;97883.38;4983616;28;20081;-85
2022/04/09 04:18:59;;;;;;;22.83;9.45;;;;;;;1.62;100.00;97882.50;4984722;28;20094;-85
2022/04/09 04:21:24;;;;;;;21.88;11.90;;;;;;;1.65;100.00;97886.84;4982813;28;20380;-85
2022/04/09 04:23:50;;;;;;;22.17;10.70;;;;;;;1.64;100.00;97891.16;4983534;28;20042;-85
2022/04/09 04:26:15;;;;;;;31.95;11.63;;;;;;;1.62;100.00;97897.22;4984625;28;20030;-85
2022/04/09 04:28:41;;;;;;;24.73;10.07;;;;;;;1.58;100.00;97903.25;4984652;28;20085;-85
2022/04/09 04:31:07;;;;;;;26.20;11.50;;;;;;;1.60;100.00;97910.16;4984814;28;20046;-85
2022/04/09 04:33:32;;;;;;;18.27;9.02;;;;;;;1.62;100.00;97923.13;4983224;28;20349;-85
2022/04/09 04:35:58;;;;;;;19.88;10.52;;;;;;;1.59;100.00;97928.31;4982965;28;20034;-85
2022/04/09 04:38:24;;;;;;;35.13;12.18;;;;;;;1.60;100.00;97932.63;4983134;28;20086;-85
2022/04/09 04:40:51;;;;;;;31.27;12.55;;;;;;;1.61;100.00;97939.53;4983384;28;20031;-85
2022/04/09 04:43:16;;;;;;;22.50;10.88;;;;;;;1.67;100.00;97939.56;4983208;28;20022;-85
2022/04/09 04:45:42;;;;;;;18.58;10.82;;;;;;;1.64;100.00;97961.19;4984446;28;20097;-85
2022/04/09 04:48:07;;;;;;;19.90;9.65;;;;;;;1.76;100.00;97965.56;4984483;28;20035;-85
2022/04/09 04:50:35;;;;;;;31.98;13.55;;;;;;;1.83;100.00;97964.72;4984389;28;20022;-85
2022/04/09 04:53:01;;;;;;;22.98;10.93;;;;;;;1.90;100.00;97977.72;4983311;28;20322;-85
2022/04/09 04:55:28;;;;;;;30.02;11.88;;;;;;;1.94;100.00;97983.78;4983339;28;20099;-85
2022/04/09 04:57:54;;;;;;;19.50;10.07;;;;;;;1.94;100.00;97986.41;4984168;28;20314;-85
2022/04/09 05:00:23;;;;;;;26.77;11.65;;;;;;;2.04;100.00;98001.13;4982599;28;20393;-85
2022/04/09 05:02:51;;;;;;;34.70;12.50;;;;;;;2.11;100.00;98008.06;4982754;28;20027;-85
2022/04/09 05:05:17;;;;;;;20.60;11.13;;;;;;;2.12;100.00;98009.81;4998846;28;20023;-85
2022/04/09 05:07:47;;;;;;;25.90;10.88;;;;;;;2.19;100.00;98006.38;4983156;28;20404;-85
2022/04/09 05:10:21;;;;;;;21.80;10.55;;;;;;;2.21;100.00;98012.44;4996703;28;20352;-85
2022/04/09 05:12:47;;;;;;;24.95;11.38;;;;;;;2.25;100.00;98011.59;4982671;28;20018;-85
2022/04/09 05:15:14;;;;;;;24.17;10.45;;;;;;;2.28;100.00;98015.94;4982752;28;20023;-85
2022/04/09 05:17:40;;;;;;;21.58;10.65;;;;;;;2.25;100.00;98022.00;4982498;28;20060;-85
2022/04/09 05:20:08;;;;;;;26.25;12.18;;;;;;;2.25;100.00;98024.59;4984138;28;20333;-85
2022/04/09 05:22:36;;;;;;;27.98;10.68;;;;;;;2.07;100.00;98008.94;4982132;28;20226;-85
2022/04/09 05:25:03;;;;;;;19.88;9.73;;;;;;;2.07;100.00;98017.59;4983928;28;20023;-85
2022/04/09 05:27:29;;;;;;;22.95;12.10;;;;;;;2.05;100.00;98018.44;4983978;28;20123;-85
2022/04/09 05:29:55;;;;;;;23.35;11.02;;;;;;;2.08;100.00;98023.63;4983793;28;20031;-85
2022/04/09 05:32:21;;;;;;;23.58;11.65;;;;;;;2.14;100.00;98029.72;4976712;28;20309;-85
2022/04/09 05:34:46;;;;;;;21.70;10.75;;;;;;;2.19;100.00;98030.59;4982594;28;20026;-85
2022/04/09 05:37:12;;;;;;;28.45;11.15;;;;;;;2.27;100.00;98041.00;4982273;28;20360;-85
2022/04/09 05:39:37;;;;;;;21.38;11.15;;;;;;;2.24;100.00;98044.47;4982915;28;20057;-85
2022/04/09 05:42:03;;;;;;;21.42;10.85;;;;;;;2.29;100.00;98054.88;4982288;28;20030;-85
2022/04/09 05:44:29;;;;;;;30.13;12.35;;;;;;;2.32;100.00;98054.88;4982857;28;20019;-85
2022/04/09 05:46:54;;;;;;;17.48;9.95;;;;;;;2.38;100.00;98054.91;4982722;28;20026;-85
2022/04/09 05:49:20;;;;;;;18.83;10.85;;;;;;;2.60;100.00;98064.50;4983233;28;20037;-85
2022/04/09 05:51:47;;;;;;;20.33;10.07;;;;;;;2.61;100.00;98084.41;4982820;28;20023;-85
2022/04/09 05:54:13;;;;;;;19.13;9.98;;;;;;;2.60;100.00;98093.06;4982795;28;20026;-85
2022/04/09 05:56:39;;;;;;;21.80;11.10;;;;;;;2.56;100.00;98091.31;4970411;28;20225;-85
2022/04/09 05:59:04;;;;;;;30.25;11.55;;;;;;;2.59;100.00;98087.88;4982472;28;20026;-85
2022/04/09 06:01:29;;;;;;;20.85;12.10;;;;;;;2.62;100.00;98091.34;4982510;28;20030;-86
2022/04/09 06:03:55;;;;;;;24.52;10.82;;;;;;;2.88;100.00;98100.06;4982588;28;20030;-88
2022/04/09 06:06:22;;;;;;;20.92;10.48;;;;;;;2.85;100.00;98105.25;4983860;28;20022;-87
2022/04/09 06:08:48;;;;;;;25.40;12.65;;;;;;;2.85;100.00;98105.25;4980298;28;20030;-88
2022/04/09 06:11:14;;;;;;;20.58;10.80;;;;;;;2.81;100.00;98113.06;4983569;28;20046;-87
2022/04/09 06:13:40;;;;;;;33.63;10.98;;;;;;;2.86;100.00;98106.13;4985860;28;20053;-86
2022/04/09 06:16:08;;;;;;;30.67;11.65;;;;;;;2.96;100.00;98113.94;4985735;28;20022;-86
2022/04/09 06:18:38;;;;;;;22.88;11.95;;;;;;;2.96;99.87;98115.66;4985427;28;20129;-85
2022/04/09 06:21:08;;;;;;;23.30;11.95;;;;;;;2.99;99.94;98129.56;4978761;28;20086;-85
2022/04/09 06:23:34;;;;;;;27.08;11.68;;;;;;;3.00;100.00;98126.09;4983908;28;20081;-85
2022/04/09 06:25:59;;;;;;;20.75;9.55;;;;;;;3.05;100.00;98129.56;4983982;28;20023;-85
2022/04/09 06:28:25;;;;;;;28.13;10.00;;;;;;;3.11;100.00;98128.72;4985011;28;20095;-85
2022/04/09 06:30:52;;;;;;;13.07;8.35;;;;;;;3.12;100.00;98139.13;4985193;28;20033;-89
2022/04/09 06:33:17;;;;;;;22.05;9.32;;;;;;;3.30;99.03;98141.75;4985071;28;20026;-86
2022/04/09 06:35:43;;;;;;;29.75;10.40;;;;;;;3.30;98.29;98135.66;4985203;28;20031;-87
2022/04/09 06:38:09;;;;;;;21.52;11.77;;;;;;;3.22;98.48;98133.06;4984199;28;20336;-87
2022/04/09 06:40:34;;;;;;;15.68;9.48;;;;;;;3.36;98.50;98146.94;4983633;28;20373;-85
2022/04/09 06:43:00;;;;;;;22.13;11.15;;;;;;;3.36;97.92;98146.94;4981848;28;20029;-85
2022/04/09 06:45:26;;;;;;;22.42;10.73;;;;;;;3.77;97.10;98137.41;4984975;28;20070;-85
2022/04/09 06:47:51;;;;;;;30.98;11.07;;;;;;;3.73;96.72;98148.69;4999864;28;20325;-85
2022/04/09 06:50:18;;;;;;;15.05;8.38;;;;;;;3.71;96.72;98154.78;4984399;28;20215;-85
2022/04/09 06:52:43;;;;;;;21.95;10.57;;;;;;;3.75;95.94;98154.78;4983961;28;20059;-84
2022/04/09 06:55:10;;;;;;;20.77;8.77;;;;;;;3.76;95.98;98164.31;4984494;28;20062;-84
2022/04/09 06:57:41;;;;;;;24.00;9.45;;;;;;;3.85;95.66;98161.69;4984212;28;20353;-86
2022/04/09 07:00:11;;;;;;;25.27;8.73;;;;;;;3.89;95.21;98158.22;4984380;28;20022;-86
2022/04/09 07:02:36;;;;;;;18.63;8.82;;;;;;;4.03;95.35;98159.09;4983177;28;20026;-86
2022/04/09 07:05:02;;;;;;;17.83;9.93;;;;;;;4.10;95.79;98166.03;4983948;28;20318;-86
2022/04/09 07:07:27;;;;;;;18.33;9.93;;;;;;;4.26;95.25;98162.50;4983502;28;20031;-86
2022/04/09 07:10:02;;;;;;;28.40;10.25;;;;;;;4.40;95.10;98160.72;4984003;28;20065;-86
2022/04/09 07:12:28;;;;;;;17.70;9.45;;;;;;;4.65;93.95;98158.06;4984914;28;20097;-86
2022/04/09 07:14:53;;;;;;;38.13;10.65;;;;;;;5.54;91.82;98163.66;4983584;28;20316;-86
2022/04/09 07:17:20;;;;;;;20.55;9.55;;;;;;;5.74;91.01;98157.41;4983742;28;20037;-86
2022/04/09 07:19:46;;;;;;;16.92;9.35;;;;;;;5.89;89.82;98161.66;4984954;28;20033;-89
2022/04/09 07:22:11;;;;;;;22.10;10.73;;;;;;;6.14;89.28;98169.25;4984181;28;20289;-89
2022/04/09 07:24:37;;;;;;;25.83;10.27;;;;;;;6.24;87.15;98176.13;4984768;28;20026;-89
2022/04/09 07:27:03;;;;;;;15.95;8.98;;;;;;;6.14;87.14;98178.84;4985107;28;20221;-89
2022/04/09 07:29:29;;;;;;;21.23;10.50;;;;;;;6.07;87.26;98185.00;4984690;28;20375;-89
2022/04/09 07:31:54;;;;;;;21.83;9.27;;;;;;;6.15;88.23;98191.03;4984217;28;20023;-87
2022/04/09 07:34:20;;;;;;;23.40;8.88;;;;;;;6.04;87.20;98191.13;4985510;28;20073;-87
2022/04/09 07:36:45;;;;;;;22.50;9.60;;;;;;;6.06;87.72;98201.56;4988225;28;20221;-87
2022/04/09 07:39:11;;;;;;;27.88;9.57;;;;;;;5.76;88.03;98201.78;4987132;28;20022;-86
2022/04/09 07:41:36;;;;;;;23.08;8.25;;;;;;;5.57;88.91;98200.19;4984143;28;20027;-86
2022/04/09 07:44:02;;;;;;;23.50;8.57;;;;;;;5.40;89.44;98197.66;4984499;28;20110;-87
2022/04/09 07:46:27;;;;;;;16.55;8.23;;;;;;;5.46;89.49;98208.06;5001159;28;20101;-87
2022/04/09 07:48:53;;;;;;;25.02;8.98;;;;;;;5.43;89.91;98209.81;4987984;28;20344;-87
2022/04/09 07:51:18;;;;;;;22.60;9.05;;;;;;;4.95;90.72;98207.47;4984844;28;20102;-87
2022/04/09 07:53:44;;;;;;;18.55;8.88;;;;;;;4.97;91.28;98210.94;4985015;28;20225;-86
2022/04/09 07:56:10;;;;;;;25.27;9.00;;;;;;;4.92;91.37;98215.28;4981650;28;20333;-87
2022/04/09 07:58:35;;;;;;;19.05;8.43;;;;;;;4.95;90.63;98215.28;4984249;28;20340;-86
2022/04/09 08:01:01;;;;;;;18.38;8.77;;;;;;;4.96;92.54;98219.59;4984271;28;20030;-86
2022/04/09 08:03:26;;;;;;;15.45;8.13;;;;;;;5.03;91.84;98211.75;4985009;28;20081;-86
2022/04/09 08:05:53;;;;;;;24.42;9.23;;;;;;;5.46;92.01;98228.06;4984179;28;20035;-86
2022/04/09 08:08:18;;;;;;;23.63;10.30;;;;;;;5.58;90.17;98234.09;4983915;28;20018;-86
2022/04/09 08:10:44;;;;;;;14.23;8.35;;;;;;;5.99;89.62;98232.09;4984059;28;20313;-86
2022/04/09 08:13:09;;;;;;;23.88;9.27;;;;;;;6.31;89.61;98231.81;4989027;28;20041;-87
2022/04/09 08:15:37;;;;;;;21.25;8.13;;;;;;;6.77;87.23;98230.47;4983971;28;20022;-91
2022/04/09 08:18:06;;;;;;;24.80;8.82;;;;;;;6.60;86.82;98228.06;4984717;28;20101;-87
2022/04/09 08:20:32;;;;;;;17.58;8.50;;;;;;;6.82;86.86;98236.53;4982919;28;20050;-88
2022/04/09 08:22:59;;;;;;;13.88;8.10;;;;;;;8.06;82.95;98231.34;4983687;28;20401;-86
2022/04/09 08:25:24;;;;;;;24.50;8.68;;;;;;;7.51;84.78;98226.94;4984225;28;20330;-87
2022/04/09 08:27:52;;;;;;;22.08;6.85;;;;;;;7.84;82.90;98232.56;4983528;28;20023;-87
2022/04/09 08:30:19;;;;;;;25.45;8.88;;;;;;;7.58;82.34;98228.59;4983658;28;20033;-87
2022/04/09 08:32:45;;;;;;;23.17;7.30;;;;;;;7.77;81.19;98238.78;4983707;28;20195;-87
2022/04/09 08:35:11;;;;;;;18.88;7.50;;;;;;;8.62;79.88;98247.03;4982983;28;20030;-88
2022/04/09 08:37:39;;;;;;;12.65;6.25;;;;;;;8.69;78.71;98240.78;4983306;28;20097;-88
2022/04/09 08:40:05;;;;;;;15.45;6.32;;;;;;;8.06;80.62;98244.44;4998671;28;20026;-88
2022/04/09 08:42:30;;;;;;;12.55;6.28;;;;;;;8.14;80.98;98245.19;4983082;28;20074;-88
2022/04/09 08:44:59;;;;;;;12.70;7.13;;;;;;;7.62;81.89;98241.63;4982686;28;20018;-88
2022/04/09 08:47:28;;;;;;;13.27;6.00;;;;;;;7.24;82.64;98238.63;4977239;28;20347;-87
2022/04/09 08:49:54;;;;;;;13.00;6.03;;;;;;;7.91;81.90;98244.66;4978564;28;20226;-87
2022/04/09 08:52:20;;;;;;;15.23;6.03;;;;;;;7.66;81.99;98243.28;4978407;28;20018;-87
2022/04/09 08:54:46;;;;;;;9.02;5.63;;;;;;;8.02;81.15;98248.00;4984877;28;20061;-87
2022/04/09 08:57:11;;;;;;;19.63;5.90;;;;;;;9.15;79.84;98242.53;4983646;28;20302;-87
2022/04/09 08:59:37;;;;;;;26.73;5.15;;;;;;;8.88;78.27;98240.41;4983748;28;20341;-88
2022/04/09 09:02:03;;;;;;;11.68;5.38;;;;;;;9.56;77.04;98247.78;4983397;28;20026;-88
2022/04/09 09:04:29;;;;;;;13.93;5.32;;;;;;;9.60;77.41;98252.06;4981153;28;20333;-87
2022/04/09 09:06:54;;;;;;;10.45;4.78;;;;;;;8.98;77.41;98249.88;4984197;28;20034;-89
2022/04/09 09:09:32;;;;;;;14.40;5.40;;;;;;;8.39;79.14;98253.56;4983769;28;20021;-88
2022/04/09 09:12:00;;;;;;;11.35;4.80;;;;;;;8.26;79.89;98263.38;4983736;28;20034;-88
2022/04/09 09:14:32;;;;;;;15.55;4.88;;;;;;;8.36;79.45;98262.31;4983698;28;20066;-88
2022/04/09 09:16:58;;;;;;;17.33;5.43;;;;;;;8.49;79.06;98255.97;4982485;28;20054;-88
2022/04/09 09:19:48;;;;;;;11.38;4.95;;;;;;;8.23;81.99;98258.19;4982331;28;20062;-88
2022/04/09 09:22:15;;;;;;;10.85;5.10;;;;;;;8.36;81.66;98264.09;4997658;28;20030;-88
2022/04/09 09:24:40;;;;;;;8.90;4.53;;;;;;;8.14;79.68;98263.53;4993722;28;20225;-88
2022/04/09 09:27:07;;;;;;;14.90;5.30;;;;;;;8.76;80.70;98268.63;4984855;28;20027;-84
2022/04/09 09:29:35;;;;;;;12.13;4.57;;;;;;;9.83;77.28;98262.94;4982519;28;20022;-84
2022/04/09 09:32:03;;;;;;;11.88;3.97;;;;;;;9.37;77.23;98265.72;4982108;28;20027;-84
2022/04/09 09:34:29;;;;;;;16.92;4.53;;;;;;;9.13;76.96;98265.31;4982553;28;20026;-83
2022/04/09 09:36:55;;;;;;;19.60;4.90;;;;;;;9.75;78.89;98280.66;4983562;28;20022;-84
2022/04/09 09:39:23;;;;;;;10.93;4.30;;;;;;;9.49;78.06;98275.09;4996011;28;20375;-84
2022/04/09 09:41:56;;;;;;;16.80;4.13;;;;;;;9.98;75.83;98275.75;4988009;28;20093;-84
2022/04/09 09:44:23;;;;;;;9.15;3.90;;;;;;;9.58;75.81;98274.88;4989765;28;20031;-84
2022/04/09 09:46:50;;;;;;;15.75;4.43;;;;;;;9.82;77.43;98279.63;4987086;28;20028;-84
2022/04/09 09:49:17;;;;;;;11.85;4.13;;;;;;;10.30;75.50;98289.03;4985636;28;20030;-84
2022/04/09 09:51:43;;;;;;;9.43;4.05;;;;;;;9.88;75.11;98284.75;4985643;28;20065;-84
2022/04/09 09:54:11;;;;;;;12.13;4.65;;;;;;;9.77;75.41;98286.72;4985987;28;20058;-84
2022/04/09 09:56:41;;;;;;;13.00;4.32;;;;;;;9.92;77.36;98291.66;4992207;28;20029;-84
2022/04/09 09:59:08;;;;;;;23.90;5.03;;;;;;;11.24;74.96;98296.25;4987343;28;20018;-84
2022/04/09 10:01:42;;;;;;;19.55;4.45;;;;;;;10.62;75.69;98297.03;4993122;28;20023;-85
2022/04/09 10:04:09;;;;;;;13.65;4.10;;;;;;;10.25;75.31;98296.19;4982457;28;20023;-85
2022/04/09 10:06:36;;;;;;;17.60;4.72;;;;;;;9.80;77.53;98295.41;4985262;28;20314;-84
2022/04/09 10:09:06;;;;;;;11.02;3.72;;;;;;;9.60;78.36;98300.25;4986049;28;21265;-84
2022/04/09 10:11:42;;;;;;;11.52;4.18;;;;;;;9.68;77.62;98292.19;4985218;28;20015;-85
2022/04/09 10:14:10;;;;;;;11.07;4.30;;;;;;;9.05;79.58;98298.72;4985006;28;20026;-85
2022/04/09 10:16:36;;;;;;;17.25;4.20;;;;;;;8.94;79.98;98300.66;4985255;28;20030;-84
2022/04/09 10:19:04;;;;;;;12.80;4.00;;;;;;;8.88;78.62;98306.91;4985177;28;20029;-85
2022/04/09 10:21:33;;;;;;;8.02;3.88;;;;;;;8.97;79.50;98300.63;4985938;28;20033;-85
2022/04/09 10:24:02;;;;;;;13.52;4.13;;;;;;;9.54;78.17;98300.38;4984362;28;20030;-84
2022/04/09 10:26:28;;;;;;;9.85;3.65;;;;;;;9.84;77.22;98304.13;4984903;28;20018;-84
2022/04/09 10:29:08;;;;;;;14.82;4.10;;;;;;;9.94;76.86;98305.63;4984953;28;20275;-84
2022/04/09 10:31:36;;;;;;;14.50;4.00;;;;;;;9.35;77.38;98295.50;4994556;28;20046;-84
2022/04/09 10:34:04;;;;;;;17.00;3.70;;;;;;;10.31;75.36;98306.53;4986088;28;20041;-84
2022/04/09 10:36:45;;;;;;;18.75;3.97;;;;;;;11.02;75.38;98303.00;4984134;28;20022;-85
2022/04/09 10:39:25;;;;;;;10.32;2.95;;;;;;;11.53;73.21;98301.59;4999150;28;20118;-87
2022/04/09 10:41:53;;;;;;;5.70;3.10;;;;;;;11.49;74.41;98305.22;4986009;28;20225;-90
2022/04/09 10:44:43;;;;;;;8.57;2.95;;;;;;;11.20;72.92;98312.19;4986887;28;20042;-88
2022/04/09 10:47:14;;;;;;;13.80;3.38;;;;;;;11.27;72.08;98311.13;4978486;28;20027;-88
2022/04/09 10:50:13;;;;;;;12.65;3.42;;;;;;;10.43;74.64;98311.53;4985604;28;20026;-88
2022/04/09 10:52:39;;;;;;;14.10;3.25;;;;;;;10.37;74.90;98316.94;4995564;28;20034;-88
2022/04/09 10:55:24;;;;;;;13.93;3.28;;;;;;;10.03;74.25;98315.97;4985247;28;20101;-88
2022/04/09 10:57:52;;;;;;;8.85;3.15;;;;;;;10.62;74.66;98318.94;4999478;28;20030;-88
2022/04/09 11:00:21;;;;;;;10.05;3.28;;;;;;;11.77;73.01;98326.41;4985180;28;20026;-88
2022/04/09 11:03:03;;;;;;;10.80;3.30;;;;;;;11.26;72.54;98326.03;4984820;28;20038;-87
2022/04/09 11:05:29;;;;;;;10.38;3.60;;;;;;;11.79;71.57;98325.44;4985809;28;20018;-88
2022/04/09 11:08:10;;;;;;;11.15;2.90;;;;;;;11.60;74.00;98313.66;4984680;28;20278;-88
2022/04/09 11:10:36;;;;;;;13.43;3.42;;;;;;;11.98;72.20;98316.09;4985072;28;20045;-87
2022/04/09 11:13:03;;;;;;;10.90;2.53;;;;;;;11.98;69.45;98317.84;4984674;28;20333;-88
2022/04/09 11:15:29;;;;;;;6.57;2.47;;;;;;;11.48;72.25;98313.16;4984844;28;20317;-88
2022/04/09 11:18:01;;;;;;;13.02;2.65;;;;;;;11.65;68.11;98316.22;4989169;28;20022;-89
2022/04/09 11:20:33;;;;;;;10.93;2.35;;;;;;;11.12;70.77;98319.41;4989773;28;20257;-89
2022/04/09 11:23:08;;;;;;;11.55;3.55;;;;;;;10.57;71.07;98314.72;4982284;28;20094;-88
2022/04/09 11:25:34;;;;;;;18.08;2.80;;;;;;;10.66;71.38;98314.44;4981097;28;20019;-88
2022/04/09 11:28:17;;;;;;;12.18;3.05;;;;;;;11.17;72.46;98323.66;4983959;28;20029;-88